This is the latest recevied weather packets stored in our database for station/object OM8AKX-12. If no packets are shown the sender has not sent any weather packets the latest 10 day(s).
| Time | Temp. | Humidity | Pressure | Rain* | Wind** | Luminosity | Snow |
|---|---|---|---|---|---|---|---|
| 1777291763 | 18.89° C | 20% | 1016.2 hPa | - | - | - | - |
| 1777290863 | 17.78° C | 22% | 1016.4 hPa | - | - | - | - |
| 1777289963 | 17.22° C | 22% | 1016.6 hPa | - | - | - | - |
| 1777289063 | 17.22° C | 22% | 1016.8 hPa | - | - | - | - |
| 1777288163 | 17.22° C | 22% | 1017 hPa | - | - | - | - |
| 1777287263 | 17.22° C | 23% | 1017.2 hPa | - | - | - | - |
| 1777286362 | 16.67° C | 24% | 1017.3 hPa | - | - | - | - |
| 1777285462 | 15.56° C | 25% | 1017.5 hPa | - | - | - | - |
| 1777284562 | 15.56° C | 25% | 1017.9 hPa | - | - | - | - |
| 1777283662 | 15.56° C | 25% | 1018.1 hPa | - | - | - | - |
| 1777282762 | 15° C | 25% | 1018.2 hPa | - | - | - | - |
| 1777278262 | 13.33° C | 26% | 1019.2 hPa | - | - | - | - |
| 1777277362 | 13.33° C | 29% | 1019.3 hPa | - | - | - | - |
| 1777276462 | 13.89° C | 27% | 1019.5 hPa | - | - | - | - |
| 1777275562 | 12.78° C | 30% | 1019.7 hPa | - | - | - | - |
| 1777274662 | 11.67° C | 32% | 1019.7 hPa | - | - | - | - |
| 1777273762 | 11.67° C | 32% | 1019.9 hPa | - | - | - | - |
| 1777272862 | 11.11° C | 34% | 1019.9 hPa | - | - | - | - |
| 1777271962 | 11.67° C | 36% | 1019.9 hPa | - | - | - | - |
| 1777271062 | 9.44° C | 38% | 1020.1 hPa | - | - | - | - |
| 1777270162 | 8.89° C | 45% | 1020 hPa | - | - | - | - |
| 1777269262 | 6.11° C | 55% | 1020.3 hPa | - | - | - | - |
| 1777268361 | 4.44° C | 60% | 1020.5 hPa | - | - | - | - |
| 1777267462 | 3.89° C | 63% | 1020.5 hPa | - | - | - | - |
| 1777266561 | 3.33° C | 65% | 1020.5 hPa | - | - | - | - |
* Rain since midnight (hover to see other rain measurements)
** Current wind speed in m/s (hover to see current wind gust speed)